Excelsior Springs, MO (64024)

6:27 AM CST on February 08, 2016 (GMT -0600)
Wornall Heights | | Change Station
CLOSE
Current Station
Personal Weather Station
Location: Excelsior Springs, MO
Elevation: 928 ft
Nearby Weather Stations
Active Advisory: Wind Advisory

Elev 928 ft 39.35 °N, 94.26 °W | Updated 18 seconds ago

Overcast
Overcast
30.5 °F
Feels Like 20 °F
N
15.4
Wind Variable Wind from North
Gusts 17.7 mph

Today
High -- | Low -- °F
--% Chance of Precip.
Yesterday
High -- | Low -- °F
Precip. -- in
Pressure 29.99 in
Visibility 10.0 miles
Clouds Overcast 3400 ft
Windchill 20 °F
Dew Point 21 °F
Humidity 67%
Rainfall 0.00 in
Snow Depth Not available.
7:17 AM 5:45 PM
Waning Crescent, 0% visible
METAR KGPH 081215Z AUTO 32016G29KT 10SM OVC034 00/M06 A2999 RMK AO2
Pressure 29.99 in
Visibility 10.0 miles
Clouds Overcast 3400 ft
Windchill 20 °F
Dew Point 21 °F
Humidity 67%
Rainfall 0.00 in
Snow Depth Not available.
7:17 AM 5:45 PM
Waning Crescent, 0% visible
METAR KGPH 081215Z AUTO 32016G29KT 10SM OVC034 00/M06 A2999 RMK AO2

10-Day Weather Forecast

Almanac

Astronomy

Feb. 08, 2016 Rise Set
Actual Time
Civil Twilight
Nautical Twilight
Astronomical Twilight
Moon
Length of Visible Light
Length of Day
Tomorrow will be .
, % of the Moon is Illuminated

Today's Extremes

State Highs State Lows

Community

WunderPhotos

Upload Photos

1,891,426 photos uploaded!

WunderBlog® & News

Nearby

Air Quality

  Air Quality AQ Index Pollutant
Not available.

Snow Depth

Station Depth Elevation

Earthquake Activity

City Distance Mag. Time & Date
Minimum magnitude displayed is 2.5.

Coastal Water Temperatures

Place Temperature

Stations

Nearby Weather Stations

Station Location Temp. Windchill Dew Point Humidity Wind Precip. Elev Updated Type
                   

Watches & Warnings

Wind Advisory
Issued: 4:50 AM CST Feb. 8, 2016 – National Weather Service

... Wind Advisory remains in effect from 8 am this morning to 6 PM
CST this evening...

* timing... through this evening.

* Winds... sustained winds around 30 to 35 mph with gusts in excess
of 45 mph are expected.

* Impacts... strong Crosswinds on highways could make travel
difficult... particularly for high profile vehicles. In
addition... light snow this morning combined with strong winds may
periodically reduce visibilities.

Precautionary/preparedness actions...

A Wind Advisory means that winds of 35 mph are expected. Winds
this strong can make driving difficult... especially for high
profile vehicles. Use extra caution.